sensor_id;sensor_type;location;lat;lon;timestamp;temperature;humidity
11540;DHT22;5826;54.756;9.192;2023-04-03T00:00:04;4.00;87.10
11540;DHT22;5826;54.756;9.192;2023-04-03T00:02:30;3.90;87.20
11540;DHT22;5826;54.756;9.192;2023-04-03T00:04:56;3.90;88.30
11540;DHT22;5826;54.756;9.192;2023-04-03T00:07:21;3.90;87.80
11540;DHT22;5826;54.756;9.192;2023-04-03T00:09:47;3.80;87.40
11540;DHT22;5826;54.756;9.192;2023-04-03T00:12:13;3.90;87.90
11540;DHT22;5826;54.756;9.192;2023-04-03T00:14:38;3.80;87.80
11540;DHT22;5826;54.756;9.192;2023-04-03T00:17:04;3.80;87.80
11540;DHT22;5826;54.756;9.192;2023-04-03T00:19:29;3.80;88.20
11540;DHT22;5826;54.756;9.192;2023-04-03T00:21:55;3.80;88.10
11540;DHT22;5826;54.756;9.192;2023-04-03T00:24:20;3.80;88.20
11540;DHT22;5826;54.756;9.192;2023-04-03T00:26:46;3.80;88.30
11540;DHT22;5826;54.756;9.192;2023-04-03T00:29:11;3.70;88.50
11540;DHT22;5826;54.756;9.192;2023-04-03T00:31:37;3.70;89.50
11540;DHT22;5826;54.756;9.192;2023-04-03T00:34:02;3.70;88.80
11540;DHT22;5826;54.756;9.192;2023-04-03T00:36:28;3.70;88.80
11540;DHT22;5826;54.756;9.192;2023-04-03T00:38:53;3.70;89.50
11540;DHT22;5826;54.756;9.192;2023-04-03T00:41:19;3.80;88.80
11540;DHT22;5826;54.756;9.192;2023-04-03T00:43:45;3.70;88.80
11540;DHT22;5826;54.756;9.192;2023-04-03T00:46:10;3.70;89.00
11540;DHT22;5826;54.756;9.192;2023-04-03T00:48:42;3.70;89.20
11540;DHT22;5826;54.756;9.192;2023-04-03T00:51:22;3.70;89.20
11540;DHT22;5826;54.756;9.192;2023-04-03T00:53:50;3.70;89.10
11540;DHT22;5826;54.756;9.192;2023-04-03T00:56:21;3.60;89.00
11540;DHT22;5826;54.756;9.192;2023-04-03T00:58:51;3.60;89.50
11540;DHT22;5826;54.756;9.192;2023-04-03T01:01:23;3.50;89.50
11540;DHT22;5826;54.756;9.192;2023-04-03T01:03:49;3.50;89.70
11540;DHT22;5826;54.756;9.192;2023-04-03T01:06:17;3.50;89.60
11540;DHT22;5826;54.756;9.192;2023-04-03T01:08:47;3.50;89.50
11540;DHT22;5826;54.756;9.192;2023-04-03T01:11:13;3.70;89.70
11540;DHT22;5826;54.756;9.192;2023-04-03T01:13:38;3.40;89.50
11540;DHT22;5826;54.756;9.192;2023-04-03T01:16:06;3.40;90.00
11540;DHT22;5826;54.756;9.192;2023-04-03T01:18:32;3.40;90.00
11540;DHT22;5826;54.756;9.192;2023-04-03T01:24:34;3.40;90.00
11540;DHT22;5826;54.756;9.192;2023-04-03T01:27:01;3.30;89.90
11540;DHT22;5826;54.756;9.192;2023-04-03T01:29:27;3.20;90.20
11540;DHT22;5826;54.756;9.192;2023-04-03T01:31:58;3.10;90.60
11540;DHT22;5826;54.756;9.192;2023-04-03T01:34:25;3.20;90.80
11540;DHT22;5826;54.756;9.192;2023-04-03T01:36:52;3.20;90.50
11540;DHT22;5826;54.756;9.192;2023-04-03T01:39:18;3.20;90.60
11540;DHT22;5826;54.756;9.192;2023-04-03T01:41:44;3.50;90.60
11540;DHT22;5826;54.756;9.192;2023-04-03T01:44:10;3.20;90.50
11540;DHT22;5826;54.756;9.192;2023-04-03T01:46:35;3.20;90.40
11540;DHT22;5826;54.756;9.192;2023-04-03T01:49:03;3.20;90.50
11540;DHT22;5826;54.756;9.192;2023-04-03T01:51:28;3.20;90.70
11540;DHT22;5826;54.756;9.192;2023-04-03T01:53:54;3.20;90.50
11540;DHT22;5826;54.756;9.192;2023-04-03T01:56:20;3.20;90.60
11540;DHT22;5826;54.756;9.192;2023-04-03T01:58:45;3.10;90.70
11540;DHT22;5826;54.756;9.192;2023-04-03T02:01:11;3.10;90.70
11540;DHT22;5826;54.756;9.192;2023-04-03T02:03:36;3.00;90.50
11540;DHT22;5826;54.756;9.192;2023-04-03T02:06:02;3.00;90.90
11540;DHT22;5826;54.756;9.192;2023-04-03T02:08:27;2.90;91.10
11540;DHT22;5826;54.756;9.192;2023-04-03T02:10:53;2.90;91.00
11540;DHT22;5826;54.756;9.192;2023-04-03T02:13:18;2.90;91.00
11540;DHT22;5826;54.756;9.192;2023-04-03T02:15:44;3.00;90.90
11540;DHT22;5826;54.756;9.192;2023-04-03T02:18:10;2.90;90.80
11540;DHT22;5826;54.756;9.192;2023-04-03T02:20:37;2.90;91.10
11540;DHT22;5826;54.756;9.192;2023-04-03T02:23:03;2.90;91.20
11540;DHT22;5826;54.756;9.192;2023-04-03T02:25:30;2.90;91.00
11540;DHT22;5826;54.756;9.192;2023-04-03T02:27:56;2.90;91.00
11540;DHT22;5826;54.756;9.192;2023-04-03T02:30:21;2.90;91.10
11540;DHT22;5826;54.756;9.192;2023-04-03T02:32:47;3.00;91.40
11540;DHT22;5826;54.756;9.192;2023-04-03T02:35:12;2.80;91.30
11540;DHT22;5826;54.756;9.192;2023-04-03T02:37:38;2.70;91.40
11540;DHT22;5826;54.756;9.192;2023-04-03T02:40:04;2.70;91.50
11540;DHT22;5826;54.756;9.192;2023-04-03T02:42:31;2.70;91.40
11540;DHT22;5826;54.756;9.192;2023-04-03T02:44:57;2.70;91.40
11540;DHT22;5826;54.756;9.192;2023-04-03T02:47:22;2.70;91.70
11540;DHT22;5826;54.756;9.192;2023-04-03T02:49:48;2.70;91.60
11540;DHT22;5826;54.756;9.192;2023-04-03T02:52:14;2.60;91.50
11540;DHT22;5826;54.756;9.192;2023-04-03T02:54:40;2.60;91.70
11540;DHT22;5826;54.756;9.192;2023-04-03T02:57:05;2.60;91.60
11540;DHT22;5826;54.756;9.192;2023-04-03T02:59:33;2.60;91.70
11540;DHT22;5826;54.756;9.192;2023-04-03T03:01:58;2.70;91.70
11540;DHT22;5826;54.756;9.192;2023-04-03T03:04:24;2.60;91.60
11540;DHT22;5826;54.756;9.192;2023-04-03T03:06:49;2.60;91.70
11540;DHT22;5826;54.756;9.192;2023-04-03T03:09:16;2.60;91.90
11540;DHT22;5826;54.756;9.192;2023-04-03T03:11:41;2.80;91.90
11540;DHT22;5826;54.756;9.192;2023-04-03T03:14:07;2.60;92.10
11540;DHT22;5826;54.756;9.192;2023-04-03T03:16:32;2.70;92.00
11540;DHT22;5826;54.756;9.192;2023-04-03T03:18:58;2.60;92.00
11540;DHT22;5826;54.756;9.192;2023-04-03T03:21:23;2.70;92.10
11540;DHT22;5826;54.756;9.192;2023-04-03T03:23:49;2.60;91.90
11540;DHT22;5826;54.756;9.192;2023-04-03T03:26:15;2.60;92.10
11540;DHT22;5826;54.756;9.192;2023-04-03T03:28:40;2.60;92.00
11540;DHT22;5826;54.756;9.192;2023-04-03T03:31:07;2.50;91.90
11540;DHT22;5826;54.756;9.192;2023-04-03T03:33:32;2.50;92.00
11540;DHT22;5826;54.756;9.192;2023-04-03T03:35:58;2.50;92.30
11540;DHT22;5826;54.756;9.192;2023-04-03T03:38:23;2.50;92.10
11540;DHT22;5826;54.756;9.192;2023-04-03T03:40:50;2.40;92.10
11540;DHT22;5826;54.756;9.192;2023-04-03T03:43:17;2.60;92.40
11540;DHT22;5826;54.756;9.192;2023-04-03T03:45:43;2.40;92.40
11540;DHT22;5826;54.756;9.192;2023-04-03T03:48:09;2.40;92.50
11540;DHT22;5826;54.756;9.192;2023-04-03T03:50:34;2.40;92.40
11540;DHT22;5826;54.756;9.192;2023-04-03T03:53:00;2.40;92.50
11540;DHT22;5826;54.756;9.192;2023-04-03T03:55:26;2.30;92.40
11540;DHT22;5826;54.756;9.192;2023-04-03T03:57:51;2.30;92.50
11540;DHT22;5826;54.756;9.192;2023-04-03T04:00:17;2.80;92.80
11540;DHT22;5826;54.756;9.192;2023-04-03T04:02:43;2.30;92.70
11540;DHT22;5826;54.756;9.192;2023-04-03T04:05:08;2.70;92.70
11540;DHT22;5826;54.756;9.192;2023-04-03T04:07:34;2.20;92.60
11540;DHT22;5826;54.756;9.192;2023-04-03T04:10:00;2.20;92.90
11540;DHT22;5826;54.756;9.192;2023-04-03T04:12:25;2.20;92.90
11540;DHT22;5826;54.756;9.192;2023-04-03T04:14:51;2.20;92.90
11540;DHT22;5826;54.756;9.192;2023-04-03T04:17:16;2.20;92.80
11540;DHT22;5826;54.756;9.192;2023-04-03T04:19:42;2.10;93.10
11540;DHT22;5826;54.756;9.192;2023-04-03T04:22:07;2.10;93.20
11540;DHT22;5826;54.756;9.192;2023-04-03T04:24:33;2.10;93.30
11540;DHT22;5826;54.756;9.192;2023-04-03T04:26:58;2.10;93.20
11540;DHT22;5826;54.756;9.192;2023-04-03T04:29:24;2.10;93.40
11540;DHT22;5826;54.756;9.192;2023-04-03T04:31:50;2.10;93.30
11540;DHT22;5826;54.756;9.192;2023-04-03T04:34:15;2.00;93.20
11540;DHT22;5826;54.756;9.192;2023-04-03T04:36:41;2.00;93.40
11540;DHT22;5826;54.756;9.192;2023-04-03T04:39:07;2.00;93.10
11540;DHT22;5826;54.756;9.192;2023-04-03T04:41:33;2.00;93.20
11540;DHT22;5826;54.756;9.192;2023-04-03T04:44:00;1.80;93.20
11540;DHT22;5826;54.756;9.192;2023-04-03T04:46:26;1.80;93.30
11540;DHT22;5826;54.756;9.192;2023-04-03T04:48:52;1.80;93.50
11540;DHT22;5826;54.756;9.192;2023-04-03T04:51:18;1.80;93.70
11540;DHT22;5826;54.756;9.192;2023-04-03T04:53:44;1.80;93.70
11540;DHT22;5826;54.756;9.192;2023-04-03T04:56:10;2.40;94.20
11540;DHT22;5826;54.756;9.192;2023-04-03T04:58:36;1.90;94.00
11540;DHT22;5826;54.756;9.192;2023-04-03T05:01:03;2.40;94.00
11540;DHT22;5826;54.756;9.192;2023-04-03T05:03:30;2.00;93.60
11540;DHT22;5826;54.756;9.192;2023-04-03T05:05:55;2.00;93.80
11540;DHT22;5826;54.756;9.192;2023-04-03T05:08:21;2.00;93.50
11540;DHT22;5826;54.756;9.192;2023-04-03T05:10:47;1.90;93.50
11540;DHT22;5826;54.756;9.192;2023-04-03T05:13:13;1.90;93.70
11540;DHT22;5826;54.756;9.192;2023-04-03T05:15:38;1.90;93.90
11540;DHT22;5826;54.756;9.192;2023-04-03T05:18:04;1.90;93.70
11540;DHT22;5826;54.756;9.192;2023-04-03T05:20:30;1.90;93.90
11540;DHT22;5826;54.756;9.192;2023-04-03T05:22:56;1.90;94.00
11540;DHT22;5826;54.756;9.192;2023-04-03T05:25:21;2.00;94.20
11540;DHT22;5826;54.756;9.192;2023-04-03T05:27:47;2.20;94.40
11540;DHT22;5826;54.756;9.192;2023-04-03T05:30:13;2.10;94.10
11540;DHT22;5826;54.756;9.192;2023-04-03T05:32:38;2.10;94.00
11540;DHT22;5826;54.756;9.192;2023-04-03T05:35:04;2.10;94.30
11540;DHT22;5826;54.756;9.192;2023-04-03T05:37:31;2.10;94.20
11540;DHT22;5826;54.756;9.192;2023-04-03T05:39:56;2.10;94.30
11540;DHT22;5826;54.756;9.192;2023-04-03T05:42:23;2.10;94.30
11540;DHT22;5826;54.756;9.192;2023-04-03T05:44:48;2.10;94.40
11540;DHT22;5826;54.756;9.192;2023-04-03T05:47:15;2.40;94.30
11540;DHT22;5826;54.756;9.192;2023-04-03T05:49:41;2.10;94.30
11540;DHT22;5826;54.756;9.192;2023-04-03T05:52:24;2.10;94.50
11540;DHT22;5826;54.756;9.192;2023-04-03T05:54:50;2.20;94.60
11540;DHT22;5826;54.756;9.192;2023-04-03T05:57:16;2.20;94.60
11540;DHT22;5826;54.756;9.192;2023-04-03T05:59:43;2.30;94.90
11540;DHT22;5826;54.756;9.192;2023-04-03T06:02:13;2.40;94.60
11540;DHT22;5826;54.756;9.192;2023-04-03T06:04:39;2.80;94.40
11540;DHT22;5826;54.756;9.192;2023-04-03T06:07:04;2.40;94.20
11540;DHT22;5826;54.756;9.192;2023-04-03T06:09:30;2.40;94.40
11540;DHT22;5826;54.756;9.192;2023-04-03T06:11:56;2.50;94.50
11540;DHT22;5826;54.756;9.192;2023-04-03T06:14:24;2.70;94.30
11540;DHT22;5826;54.756;9.192;2023-04-03T06:16:50;2.60;93.90
11540;DHT22;5826;54.756;9.192;2023-04-03T06:19:15;2.60;93.90
11540;DHT22;5826;54.756;9.192;2023-04-03T06:21:41;2.60;93.90
11540;DHT22;5826;54.756;9.192;2023-04-03T06:24:07;2.70;94.00
11540;DHT22;5826;54.756;9.192;2023-04-03T06:26:33;2.70;93.90
11540;DHT22;5826;54.756;9.192;2023-04-03T06:28:59;2.70;93.80
11540;DHT22;5826;54.756;9.192;2023-04-03T06:31:24;2.80;93.90
11540;DHT22;5826;54.756;9.192;2023-04-03T06:33:50;2.90;93.90
11540;DHT22;5826;54.756;9.192;2023-04-03T06:36:18;2.90;93.60
11540;DHT22;5826;54.756;9.192;2023-04-03T06:38:46;3.00;93.70
11540;DHT22;5826;54.756;9.192;2023-04-03T06:41:12;3.00;93.70
11540;DHT22;5826;54.756;9.192;2023-04-03T06:43:37;3.00;93.60
11540;DHT22;5826;54.756;9.192;2023-04-03T06:46:03;3.10;94.10
11540;DHT22;5826;54.756;9.192;2023-04-03T06:48:28;3.20;94.10
11540;DHT22;5826;54.756;9.192;2023-04-03T06:50:54;3.20;94.20
11540;DHT22;5826;54.756;9.192;2023-04-03T06:53:20;3.20;94.10
11540;DHT22;5826;54.756;9.192;2023-04-03T06:55:46;3.20;94.00
11540;DHT22;5826;54.756;9.192;2023-04-03T06:58:12;3.30;94.30
11540;DHT22;5826;54.756;9.192;2023-04-03T07:00:39;3.30;94.40
11540;DHT22;5826;54.756;9.192;2023-04-03T07:03:04;3.30;94.10
11540;DHT22;5826;54.756;9.192;2023-04-03T07:05:30;3.40;94.10
11540;DHT22;5826;54.756;9.192;2023-04-03T07:07:56;3.90;94.30
11540;DHT22;5826;54.756;9.192;2023-04-03T07:10:21;3.60;94.20
11540;DHT22;5826;54.756;9.192;2023-04-03T07:12:47;3.60;94.10
11540;DHT22;5826;54.756;9.192;2023-04-03T07:15:13;3.70;94.10
11540;DHT22;5826;54.756;9.192;2023-04-03T07:17:39;3.70;94.20
11540;DHT22;5826;54.756;9.192;2023-04-03T07:20:06;3.80;94.50
11540;DHT22;5826;54.756;9.192;2023-04-03T07:22:32;3.90;94.10
11540;DHT22;5826;54.756;9.192;2023-04-03T07:24:57;3.90;94.40
11540;DHT22;5826;54.756;9.192;2023-04-03T07:27:24;4.00;94.00
11540;DHT22;5826;54.756;9.192;2023-04-03T07:29:50;4.10;94.20
11540;DHT22;5826;54.756;9.192;2023-04-03T07:32:16;4.20;94.20
11540;DHT22;5826;54.756;9.192;2023-04-03T07:34:43;4.30;94.00
11540;DHT22;5826;54.756;9.192;2023-04-03T07:37:09;4.40;94.40
11540;DHT22;5826;54.756;9.192;2023-04-03T07:39:34;4.50;93.90
11540;DHT22;5826;54.756;9.192;2023-04-03T07:42:00;4.60;94.20
11540;DHT22;5826;54.756;9.192;2023-04-03T07:44:27;4.70;94.10
11540;DHT22;5826;54.756;9.192;2023-04-03T07:46:52;4.80;94.10
11540;DHT22;5826;54.756;9.192;2023-04-03T07:49:18;4.90;94.30
11540;DHT22;5826;54.756;9.192;2023-04-03T07:51:44;4.90;94.40
11540;DHT22;5826;54.756;9.192;2023-04-03T07:54:10;5.00;95.00
11540;DHT22;5826;54.756;9.192;2023-04-03T07:56:36;5.10;94.90
11540;DHT22;5826;54.756;9.192;2023-04-03T07:59:02;5.10;95.10
11540;DHT22;5826;54.756;9.192;2023-04-03T08:01:27;5.30;94.30
11540;DHT22;5826;54.756;9.192;2023-04-03T08:03:53;5.40;94.10
11540;DHT22;5826;54.756;9.192;2023-04-03T08:06:18;5.50;94.50
11540;DHT22;5826;54.756;9.192;2023-04-03T08:08:44;5.60;94.10
11540;DHT22;5826;54.756;9.192;2023-04-03T08:11:10;5.70;93.90
11540;DHT22;5826;54.756;9.192;2023-04-03T08:13:35;5.90;94.50
11540;DHT22;5826;54.756;9.192;2023-04-03T08:16:18;6.00;95.30
11540;DHT22;5826;54.756;9.192;2023-04-03T08:18:45;6.00;94.50
11540;DHT22;5826;54.756;9.192;2023-04-03T08:21:11;6.10;94.40
11540;DHT22;5826;54.756;9.192;2023-04-03T08:23:38;6.10;94.20
11540;DHT22;5826;54.756;9.192;2023-04-03T08:26:12;6.20;94.60
11540;DHT22;5826;54.756;9.192;2023-04-03T08:28:38;6.20;95.10
11540;DHT22;5826;54.756;9.192;2023-04-03T08:31:06;6.30;93.90
11540;DHT22;5826;54.756;9.192;2023-04-03T08:33:34;6.40;94.30
11540;DHT22;5826;54.756;9.192;2023-04-03T08:36:03;6.50;94.60
11540;DHT22;5826;54.756;9.192;2023-04-03T08:38:28;6.50;94.00
11540;DHT22;5826;54.756;9.192;2023-04-03T08:47:11;6.70;94.20
11540;DHT22;5826;54.756;9.192;2023-04-03T08:49:42;6.80;93.90
11540;DHT22;5826;54.756;9.192;2023-04-03T08:52:31;6.90;94.20
11540;DHT22;5826;54.756;9.192;2023-04-03T08:54:59;6.90;94.30
11540;DHT22;5826;54.756;9.192;2023-04-03T08:57:31;7.00;93.70
11540;DHT22;5826;54.756;9.192;2023-04-03T09:00:15;7.10;93.80
11540;DHT22;5826;54.756;9.192;2023-04-03T09:02:47;7.20;93.50
11540;DHT22;5826;54.756;9.192;2023-04-03T09:05:16;7.30;93.40
11540;DHT22;5826;54.756;9.192;2023-04-03T09:07:46;7.40;93.90
11540;DHT22;5826;54.756;9.192;2023-04-03T09:10:14;7.50;93.30
11540;DHT22;5826;54.756;9.192;2023-04-03T09:12:46;7.60;93.10
11540;DHT22;5826;54.756;9.192;2023-04-03T09:15:22;7.70;92.60
11540;DHT22;5826;54.756;9.192;2023-04-03T09:18:19;7.90;92.80
11540;DHT22;5826;54.756;9.192;2023-04-03T09:21:02;8.10;92.40
11540;DHT22;5826;54.756;9.192;2023-04-03T09:23:43;8.30;92.30
11540;DHT22;5826;54.756;9.192;2023-04-03T09:26:15;8.50;92.10
11540;DHT22;5826;54.756;9.192;2023-04-03T09:28:42;8.60;91.90
11540;DHT22;5826;54.756;9.192;2023-04-03T09:31:29;8.70;91.80
11540;DHT22;5826;54.756;9.192;2023-04-03T09:34:24;8.70;91.60
11540;DHT22;5826;54.756;9.192;2023-04-03T09:36:53;8.70;91.80
11540;DHT22;5826;54.756;9.192;2023-04-03T09:39:22;8.70;91.50
11540;DHT22;5826;54.756;9.192;2023-04-03T09:42:11;8.90;92.00
11540;DHT22;5826;54.756;9.192;2023-04-03T09:44:39;9.20;91.30
11540;DHT22;5826;54.756;9.192;2023-04-03T09:47:31;9.40;90.90
11540;DHT22;5826;54.756;9.192;2023-04-03T09:52:41;9.90;90.50
11540;DHT22;5826;54.756;9.192;2023-04-03T09:55:13;9.90;89.30
11540;DHT22;5826;54.756;9.192;2023-04-03T09:57:39;9.90;89.70
11540;DHT22;5826;54.756;9.192;2023-04-03T10:00:05;10.00;89.40
11540;DHT22;5826;54.756;9.192;2023-04-03T10:02:35;10.20;88.80
11540;DHT22;5826;54.756;9.192;2023-04-03T10:05:03;10.40;87.70
11540;DHT22;5826;54.756;9.192;2023-04-03T10:07:34;10.70;87.60
11540;DHT22;5826;54.756;9.192;2023-04-03T10:10:21;10.90;87.40
11540;DHT22;5826;54.756;9.192;2023-04-03T10:12:52;11.20;86.80
11540;DHT22;5826;54.756;9.192;2023-04-03T10:15:28;11.50;85.60
11540;DHT22;5826;54.756;9.192;2023-04-03T10:20:47;11.90;85.40
11540;DHT22;5826;54.756;9.192;2023-04-03T10:23:18;12.00;84.20
11540;DHT22;5826;54.756;9.192;2023-04-03T10:28:37;12.40;83.60
11540;DHT22;5826;54.756;9.192;2023-04-03T10:33:48;12.70;84.30
11540;DHT22;5826;54.756;9.192;2023-04-03T10:36:29;12.70;83.90
11540;DHT22;5826;54.756;9.192;2023-04-03T10:39:12;12.70;83.60
11540;DHT22;5826;54.756;9.192;2023-04-03T10:41:56;12.70;83.40
11540;DHT22;5826;54.756;9.192;2023-04-03T10:44:50;12.70;83.60
11540;DHT22;5826;54.756;9.192;2023-04-03T10:47:32;12.70;82.60
11540;DHT22;5826;54.756;9.192;2023-04-03T10:52:43;12.70;82.70
11540;DHT22;5826;54.756;9.192;2023-04-03T10:55:30;12.70;83.30
11540;DHT22;5826;54.756;9.192;2023-04-03T10:57:58;12.70;83.60
11540;DHT22;5826;54.756;9.192;2023-04-03T11:03:01;12.70;83.60
11540;DHT22;5826;54.756;9.192;2023-04-03T11:05:45;12.70;82.70
11540;DHT22;5826;54.756;9.192;2023-04-03T11:11:09;12.80;83.00
11540;DHT22;5826;54.756;9.192;2023-04-03T11:13:51;12.80;83.00
11540;DHT22;5826;54.756;9.192;2023-04-03T11:16:26;12.90;83.30
11540;DHT22;5826;54.756;9.192;2023-04-03T11:18:56;12.90;82.60
11540;DHT22;5826;54.756;9.192;2023-04-03T11:21:29;12.90;83.20
11540;DHT22;5826;54.756;9.192;2023-04-03T11:23:57;12.70;83.80
11540;DHT22;5826;54.756;9.192;2023-04-03T11:26:31;12.70;82.60
11540;DHT22;5826;54.756;9.192;2023-04-03T11:29:09;12.70;82.20
11540;DHT22;5826;54.756;9.192;2023-04-03T11:32:21;12.70;83.10
11540;DHT22;5826;54.756;9.192;2023-04-03T11:34:54;12.70;83.70
11540;DHT22;5826;54.756;9.192;2023-04-03T11:37:42;12.80;82.20
11540;DHT22;5826;54.756;9.192;2023-04-03T11:42:46;12.90;83.40
11540;DHT22;5826;54.756;9.192;2023-04-03T11:47:52;12.70;83.50
11540;DHT22;5826;54.756;9.192;2023-04-03T12:13:38;11.30;86.00
11540;DHT22;5826;54.756;9.192;2023-04-03T12:16:06;11.60;86.10
11540;DHT22;5826;54.756;9.192;2023-04-03T12:18:55;12.10;84.50
11540;DHT22;5826;54.756;9.192;2023-04-03T12:21:24;12.50;84.30
11540;DHT22;5826;54.756;9.192;2023-04-03T12:26:43;13.50;81.00
11540;DHT22;5826;54.756;9.192;2023-04-03T12:29:27;13.80;81.50
11540;DHT22;5826;54.756;9.192;2023-04-03T12:37:43;14.70;78.60
11540;DHT22;5826;54.756;9.192;2023-04-03T12:43:25;15.00;79.20
11540;DHT22;5826;54.756;9.192;2023-04-03T12:51:18;15.60;77.80
11540;DHT22;5826;54.756;9.192;2023-04-03T12:53:45;15.80;77.50
11540;DHT22;5826;54.756;9.192;2023-04-03T12:56:29;15.90;76.20
11540;DHT22;5826;54.756;9.192;2023-04-03T12:59:12;15.80;72.90
11540;DHT22;5826;54.756;9.192;2023-04-03T13:01:38;15.80;75.50
11540;DHT22;5826;54.756;9.192;2023-04-03T13:04:04;15.90;75.50
11540;DHT22;5826;54.756;9.192;2023-04-03T13:06:43;15.80;74.90
11540;DHT22;5826;54.756;9.192;2023-04-03T13:09:21;15.50;75.50
11540;DHT22;5826;54.756;9.192;2023-04-03T13:12:30;14.90;77.30
11540;DHT22;5826;54.756;9.192;2023-04-03T13:14:37;14.40;77.20
11540;DHT22;5826;54.756;9.192;2023-04-03T13:17:16;14.00;79.00
11540;DHT22;5826;54.756;9.192;2023-04-03T13:19:42;14.20;77.30
11540;DHT22;5826;54.756;9.192;2023-04-03T13:22:34;14.70;76.00
11540;DHT22;5826;54.756;9.192;2023-04-03T13:25:06;15.30;75.10
11540;DHT22;5826;54.756;9.192;2023-04-03T13:27:34;15.90;74.30
11540;DHT22;5826;54.756;9.192;2023-04-03T13:30:02;16.40;72.80
11540;DHT22;5826;54.756;9.192;2023-04-03T13:32:30;16.80;72.50
11540;DHT22;5826;54.756;9.192;2023-04-03T13:34:56;17.10;70.80
11540;DHT22;5826;54.756;9.192;2023-04-03T13:37:23;17.40;71.60
11540;DHT22;5826;54.756;9.192;2023-04-03T13:40:02;17.70;70.00
11540;DHT22;5826;54.756;9.192;2023-04-03T13:42:31;18.10;69.90
11540;DHT22;5826;54.756;9.192;2023-04-03T13:45:27;18.40;69.30
11540;DHT22;5826;54.756;9.192;2023-04-03T13:48:20;18.90;62.40
11540;DHT22;5826;54.756;9.192;2023-04-03T13:53:33;20.10;62.10
11540;DHT22;5826;54.756;9.192;2023-04-03T13:56:06;20.90;63.20
11540;DHT22;5826;54.756;9.192;2023-04-03T13:58:33;22.10;59.10
11540;DHT22;5826;54.756;9.192;2023-04-03T14:03:46;25.20;51.90
11540;DHT22;5826;54.756;9.192;2023-04-03T14:06:14;27.10;50.10
11540;DHT22;5826;54.756;9.192;2023-04-03T14:08:41;28.70;51.10
11540;DHT22;5826;54.756;9.192;2023-04-03T14:11:13;30.20;49.90
11540;DHT22;5826;54.756;9.192;2023-04-03T14:13:39;31.70;47.60
11540;DHT22;5826;54.756;9.192;2023-04-03T14:16:05;33.00;46.90
11540;DHT22;5826;54.756;9.192;2023-04-03T14:18:31;34.10;45.90
11540;DHT22;5826;54.756;9.192;2023-04-03T14:20:57;35.00;46.80
11540;DHT22;5826;54.756;9.192;2023-04-03T14:23:22;35.60;47.20
11540;DHT22;5826;54.756;9.192;2023-04-03T14:25:48;36.20;47.90
11540;DHT22;5826;54.756;9.192;2023-04-03T14:28:20;36.70;49.50
11540;DHT22;5826;54.756;9.192;2023-04-03T14:30:47;37.10;51.00
11540;DHT22;5826;54.756;9.192;2023-04-03T14:33:16;37.50;52.80
11540;DHT22;5826;54.756;9.192;2023-04-03T14:35:43;37.80;55.00
11540;DHT22;5826;54.756;9.192;2023-04-03T14:38:28;37.60;56.10
11540;DHT22;5826;54.756;9.192;2023-04-03T14:40:55;35.90;55.80
11540;DHT22;5826;54.756;9.192;2023-04-03T14:43:20;32.90;62.80
11540;DHT22;5826;54.756;9.192;2023-04-03T14:45:47;29.70;66.30
11540;DHT22;5826;54.756;9.192;2023-04-03T14:48:18;29.20;67.00
11540;DHT22;5826;54.756;9.192;2023-04-03T14:50:44;31.00;64.50
11540;DHT22;5826;54.756;9.192;2023-04-03T14:53:12;33.00;61.80
11540;DHT22;5826;54.756;9.192;2023-04-03T14:55:38;34.70;61.20
11540;DHT22;5826;54.756;9.192;2023-04-03T14:58:03;35.90;61.80
11540;DHT22;5826;54.756;9.192;2023-04-03T15:00:30;36.80;62.00
11540;DHT22;5826;54.756;9.192;2023-04-03T15:02:55;37.40;60.40
11540;DHT22;5826;54.756;9.192;2023-04-03T15:05:21;37.40;60.80
11540;DHT22;5826;54.756;9.192;2023-04-03T15:07:53;37.00;63.00
11540;DHT22;5826;54.756;9.192;2023-04-03T15:10:22;36.60;61.90
11540;DHT22;5826;54.756;9.192;2023-04-03T15:12:49;36.70;62.50
11540;DHT22;5826;54.756;9.192;2023-04-03T15:15:16;37.00;63.90
11540;DHT22;5826;54.756;9.192;2023-04-03T15:17:42;37.10;64.20
11540;DHT22;5826;54.756;9.192;2023-04-03T15:20:17;37.10;64.60
11540;DHT22;5826;54.756;9.192;2023-04-03T15:22:43;37.40;61.00
11540;DHT22;5826;54.756;9.192;2023-04-03T15:25:09;37.70;63.10
11540;DHT22;5826;54.756;9.192;2023-04-03T15:27:35;38.10;63.10
11540;DHT22;5826;54.756;9.192;2023-04-03T15:30:02;38.40;62.90
11540;DHT22;5826;54.756;9.192;2023-04-03T15:32:28;38.60;62.70
11540;DHT22;5826;54.756;9.192;2023-04-03T15:34:54;38.90;63.00
11540;DHT22;5826;54.756;9.192;2023-04-03T15:37:20;38.80;63.30
11540;DHT22;5826;54.756;9.192;2023-04-03T15:39:45;38.80;64.00
11540;DHT22;5826;54.756;9.192;2023-04-03T15:42:11;38.50;61.90
11540;DHT22;5826;54.756;9.192;2023-04-03T15:44:37;38.40;62.80
11540;DHT22;5826;54.756;9.192;2023-04-03T15:47:03;38.20;61.30
11540;DHT22;5826;54.756;9.192;2023-04-03T15:49:29;38.10;61.80
11540;DHT22;5826;54.756;9.192;2023-04-03T15:51:55;38.00;61.20
11540;DHT22;5826;54.756;9.192;2023-04-03T15:54:21;37.90;61.80
11540;DHT22;5826;54.756;9.192;2023-04-03T15:56:49;37.90;61.30
11540;DHT22;5826;54.756;9.192;2023-04-03T15:59:14;37.70;61.90
11540;DHT22;5826;54.756;9.192;2023-04-03T16:01:40;37.30;60.40
11540;DHT22;5826;54.756;9.192;2023-04-03T16:04:08;36.90;61.40
11540;DHT22;5826;54.756;9.192;2023-04-03T16:06:35;36.60;60.30
11540;DHT22;5826;54.756;9.192;2023-04-03T16:09:01;36.50;59.40
11540;DHT22;5826;54.756;9.192;2023-04-03T16:11:27;36.40;59.50
11540;DHT22;5826;54.756;9.192;2023-04-03T16:13:53;36.40;60.60
11540;DHT22;5826;54.756;9.192;2023-04-03T16:16:19;36.20;60.40
11540;DHT22;5826;54.756;9.192;2023-04-03T16:18:45;36.00;59.40
11540;DHT22;5826;54.756;9.192;2023-04-03T16:21:12;35.60;59.80
11540;DHT22;5826;54.756;9.192;2023-04-03T16:23:40;35.20;59.20
11540;DHT22;5826;54.756;9.192;2023-04-03T16:26:05;35.00;58.50
11540;DHT22;5826;54.756;9.192;2023-04-03T16:28:31;34.90;58.10
11540;DHT22;5826;54.756;9.192;2023-04-03T16:30:57;34.80;59.30
11540;DHT22;5826;54.756;9.192;2023-04-03T16:33:23;34.70;58.80
11540;DHT22;5826;54.756;9.192;2023-04-03T16:35:50;34.30;58.20
11540;DHT22;5826;54.756;9.192;2023-04-03T16:38:17;33.50;58.00
11540;DHT22;5826;54.756;9.192;2023-04-03T16:40:44;32.50;58.70
11540;DHT22;5826;54.756;9.192;2023-04-03T16:43:10;32.00;58.10
11540;DHT22;5826;54.756;9.192;2023-04-03T16:45:35;31.70;58.40
11540;DHT22;5826;54.756;9.192;2023-04-03T16:48:01;31.70;57.50
11540;DHT22;5826;54.756;9.192;2023-04-03T16:50:27;31.10;57.70
11540;DHT22;5826;54.756;9.192;2023-04-03T16:52:52;30.40;55.80
11540;DHT22;5826;54.756;9.192;2023-04-03T16:55:18;29.70;57.40
11540;DHT22;5826;54.756;9.192;2023-04-03T16:57:43;29.10;55.70
11540;DHT22;5826;54.756;9.192;2023-04-03T17:00:09;28.70;57.40
11540;DHT22;5826;54.756;9.192;2023-04-03T17:02:35;28.30;55.20
11540;DHT22;5826;54.756;9.192;2023-04-03T17:05:01;28.00;55.60
11540;DHT22;5826;54.756;9.192;2023-04-03T17:07:26;27.50;55.30
11540;DHT22;5826;54.756;9.192;2023-04-03T17:09:52;26.50;56.70
11540;DHT22;5826;54.756;9.192;2023-04-03T17:12:19;25.20;58.10
11540;DHT22;5826;54.756;9.192;2023-04-03T17:14:45;23.50;59.60
11540;DHT22;5826;54.756;9.192;2023-04-03T17:17:13;21.50;62.60
11540;DHT22;5826;54.756;9.192;2023-04-03T17:19:39;19.70;64.50
11540;DHT22;5826;54.756;9.192;2023-04-03T17:22:07;18.10;66.70